Time;durP1;ratioP1;P1;durP2;ratioP2;P2;SDS_P1;SDS_P2;PMS_P1;PMS_P2;Temp;Humidity;BMP_temperature;BMP_pressure;BME280_temperature;BME280_humidity;BME280_pressure;Samples;Min_cycle;Max_cycle;Signal;HPM_P1;HPM_P2
2023/08/29 00:01:56;;;;;;;15.20;4.70;;;;;;;28.81;50.21;97768.23;67853;1278;1016127;-60
2023/08/29 00:04:59;;;;;;;15.30;4.70;;;;;;;29.02;49.70;97766.27;67802;1278;1015953;-61
2023/08/29 00:08:01;;;;;;;16.30;4.80;;;;;;;29.04;49.79;97763.27;67793;1278;1016328;-58
2023/08/29 00:11:04;;;;;;;12.90;4.30;;;;;;;29.10;49.64;97756.96;67801;1278;1016343;-61
2023/08/29 00:14:06;;;;;;;16.10;5.20;;;;;;;28.97;50.00;97754.11;67855;1277;1016527;-61
2023/08/29 00:17:09;;;;;;;16.20;4.50;;;;;;;29.09;49.63;97744.33;67857;1278;1016420;-61
2023/08/29 00:20:11;;;;;;;14.30;4.40;;;;;;;28.94;49.94;97737.27;67820;1278;1018904;-61
2023/08/29 00:23:13;;;;;;;18.60;5.10;;;;;;;28.87;50.05;97729.09;67817;1257;1016445;-61
2023/08/29 00:26:16;;;;;;;14.00;4.90;;;;;;;28.88;49.94;97720.25;67860;1278;1016221;-61
2023/08/29 00:29:18;;;;;;;14.40;4.60;;;;;;;28.95;50.01;97718.70;67864;1278;1016471;-61
2023/08/29 00:32:21;;;;;;;18.30;4.80;;;;;;;29.07;49.85;97713.12;67859;1278;1015620;-61
2023/08/29 00:35:23;;;;;;;14.40;4.50;;;;;;;29.17;49.47;97710.61;67816;1278;1016405;-61
2023/08/29 00:38:25;;;;;;;14.50;4.40;;;;;;;29.18;49.50;97710.63;67807;1278;1016438;-61
2023/08/29 00:41:28;;;;;;;14.60;4.50;;;;;;;29.24;49.34;97708.86;67805;1278;1016414;-61
2023/08/29 00:44:30;;;;;;;14.90;4.60;;;;;;;29.27;49.29;97706.44;67856;1278;1016336;-61
2023/08/29 00:47:32;;;;;;;13.30;4.70;;;;;;;29.32;49.13;97708.16;67837;1278;1016401;-61
2023/08/29 00:50:35;;;;;;;12.10;4.30;;;;;;;29.39;49.14;97705.86;67826;1278;1017261;-61
2023/08/29 00:53:37;;;;;;;15.50;4.80;;;;;;;29.41;48.91;97710.48;67799;1278;1016702;-61
2023/08/29 00:56:40;;;;;;;15.40;4.60;;;;;;;29.29;49.45;97715.24;67804;1278;1016340;-61
2023/08/29 00:59:42;;;;;;;17.20;5.10;;;;;;;29.29;49.39;97716.25;67840;1278;1016652;-61
2023/08/29 01:02:44;;;;;;;20.50;4.80;;;;;;;29.37;49.46;97711.65;67827;1278;1016478;-61
2023/08/29 01:05:47;;;;;;;14.60;4.60;;;;;;;29.29;49.77;97709.41;67819;1278;1016441;-60
2023/08/29 01:08:49;;;;;;;17.20;5.20;;;;;;;29.40;49.49;97704.91;67797;1278;1016295;-61
2023/08/29 01:11:52;;;;;;;13.90;4.50;;;;;;;29.47;49.34;97694.71;67773;1278;1016275;-61
2023/08/29 01:14:55;;;;;;;15.10;4.80;;;;;;;29.54;49.21;97696.23;67825;1278;1016456;-61
2023/08/29 01:17:57;;;;;;;15.60;4.60;;;;;;;29.61;49.16;97722.77;67868;1278;1016223;-61
2023/08/29 01:20:59;;;;;;;17.10;5.40;;;;;;;29.40;49.59;97812.25;67787;1278;1016521;-61
2023/08/29 01:24:02;;;;;;;20.10;5.70;;;;;;;28.84;50.80;97832.67;67807;1278;1018249;-61
2023/08/29 01:27:05;;;;;;;19.20;5.80;;;;;;;28.78;51.11;97814.43;67830;1278;1016423;-61
2023/08/29 01:30:08;;;;;;;19.50;5.50;;;;;;;28.72;51.46;97828.54;67792;1278;1016873;-61
2023/08/29 01:33:10;;;;;;;16.50;4.90;;;;;;;28.58;52.19;97838.55;67814;1278;1016391;-61
2023/08/29 01:36:13;;;;;;;16.70;5.50;;;;;;;28.30;53.46;97848.81;67847;1278;1016428;-61
2023/08/29 01:39:15;;;;;;;19.10;5.60;;;;;;;28.27;52.60;97795.77;67840;1278;1015875;-61
2023/08/29 01:42:17;;;;;;;17.10;5.30;;;;;;;28.15;53.59;97824.96;67812;1277;1016281;-61
2023/08/29 01:45:20;;;;;;;16.80;5.70;;;;;;;28.00;54.07;97811.05;67809;1278;1017877;-61
2023/08/29 01:52:02;;;;;;;18.90;5.90;;;;;;;28.00;53.79;97799.77;67828;1278;1016395;-61
2023/08/29 01:55:04;;;;;;;16.10;5.90;;;;;;;27.91;54.93;97823.69;67813;1278;1016382;-60
2023/08/29 01:58:07;;;;;;;18.00;5.70;;;;;;;27.73;55.03;97817.27;67799;1278;1016451;-61
2023/08/29 02:01:09;;;;;;;16.50;5.70;;;;;;;27.72;55.18;97816.45;67847;1278;1016415;-61
2023/08/29 02:04:12;;;;;;;18.80;5.50;;;;;;;27.80;54.27;97788.64;67869;1278;1016293;-61
2023/08/29 02:07:14;;;;;;;19.90;6.60;;;;;;;27.86;54.66;97800.81;67839;1278;1016446;-62
2023/08/29 02:10:16;;;;;;;16.70;5.90;;;;;;;27.74;55.20;97807.35;67818;1278;1016861;-61
2023/08/29 02:13:19;;;;;;;17.00;5.60;;;;;;;27.72;55.45;97803.36;67793;1278;1016490;-61
2023/08/29 02:16:21;;;;;;;15.40;5.60;;;;;;;27.65;55.38;97793.73;67800;1278;1016321;-61
2023/08/29 02:19:26;;;;;;;19.60;6.10;;;;;;;27.65;55.39;97796.33;67850;1278;1016390;-61
2023/08/29 02:22:28;;;;;;;16.80;5.80;;;;;;;27.65;55.78;97799.29;67870;1278;1016036;-61
2023/08/29 02:25:30;;;;;;;18.10;6.20;;;;;;;27.66;55.96;97797.66;67804;1278;1016304;-61
2023/08/29 02:28:33;;;;;;;17.80;5.80;;;;;;;27.74;55.53;97784.98;67798;1278;1016468;-61
2023/08/29 02:31:35;;;;;;;18.00;5.90;;;;;;;27.80;55.15;97778.09;67842;1278;1016036;-61
2023/08/29 02:34:38;;;;;;;19.00;7.00;;;;;;;27.52;56.55;97783.05;67835;1278;1016865;-61
2023/08/29 02:37:40;;;;;;;20.70;6.60;;;;;;;27.58;56.28;97788.45;67829;1278;1016049;-61
2023/08/29 02:40:43;;;;;;;19.20;6.70;;;;;;;27.57;56.20;97785.35;67765;1278;1016169;-61
2023/08/29 02:43:45;;;;;;;18.00;6.30;;;;;;;27.62;56.29;97780.96;67806;1278;1016499;-61
2023/08/29 02:46:47;;;;;;;19.70;7.20;;;;;;;27.65;56.09;97786.68;67852;1278;1015971;-61
2023/08/29 02:49:50;;;;;;;18.80;6.90;;;;;;;27.63;56.09;97787.38;67872;1278;1019458;-61
2023/08/29 02:52:52;;;;;;;18.60;6.80;;;;;;;27.61;55.87;97781.58;67858;1278;1016407;-59
2023/08/29 02:55:55;;;;;;;20.40;7.10;;;;;;;27.75;55.26;97770.58;67775;1278;1016178;-61
2023/08/29 02:58:57;;;;;;;20.20;7.10;;;;;;;27.71;55.45;97765.35;67826;1278;1015998;-59
2023/08/29 03:02:02;;;;;;;22.70;7.60;;;;;;;27.66;55.60;97753.33;67805;1278;1016448;-59
2023/08/29 03:05:05;;;;;;;18.80;7.60;;;;;;;27.74;55.41;97745.65;67794;1278;1016460;-61
2023/08/29 03:08:07;;;;;;;18.80;7.60;;;;;;;27.73;55.36;97734.80;67817;1278;1017224;-61
2023/08/29 03:11:10;;;;;;;21.00;7.70;;;;;;;27.82;55.20;97724.52;67775;1278;1015978;-60
2023/08/29 03:14:12;;;;;;;18.80;7.80;;;;;;;27.91;54.94;97724.25;67848;1278;1016481;-60
2023/08/29 03:17:14;;;;;;;20.20;7.80;;;;;;;28.03;54.59;97725.65;67836;1278;1016387;-60
2023/08/29 03:20:17;;;;;;;21.00;8.50;;;;;;;28.05;54.61;97727.73;67817;1278;1016955;-61
2023/08/29 03:23:19;;;;;;;19.90;7.90;;;;;;;28.11;54.44;97729.45;67829;1278;1016476;-60
2023/08/29 03:26:22;;;;;;;19.50;7.80;;;;;;;28.14;54.27;97727.54;67810;1278;1016455;-61
2023/08/29 03:29:24;;;;;;;21.00;8.50;;;;;;;28.12;54.36;97726.24;67825;1278;1016321;-61
2023/08/29 03:32:26;;;;;;;22.50;8.30;;;;;;;28.23;54.05;97727.61;67883;1278;1015979;-61
2023/08/29 03:35:29;;;;;;;20.20;9.10;;;;;;;28.28;53.81;97732.06;67862;1278;1018107;-59
2023/08/29 03:38:31;;;;;;;21.60;8.90;;;;;;;28.13;54.14;97727.89;67791;1278;1016442;-60
2023/08/29 03:41:34;;;;;;;22.50;8.80;;;;;;;28.11;54.30;97719.21;67810;1278;1016832;-61
2023/08/29 03:44:36;;;;;;;22.40;10.30;;;;;;;28.11;54.41;97712.96;67834;1278;1018918;-60
2023/08/29 03:47:38;;;;;;;23.20;10.00;;;;;;;28.15;54.16;97718.82;67854;1278;1017152;-61
2023/08/29 03:50:41;;;;;;;22.30;9.80;;;;;;;28.17;54.03;97724.42;67843;1278;1016146;-61
2023/08/29 03:53:43;;;;;;;20.70;9.40;;;;;;;28.28;53.85;97722.66;67796;1278;1016024;-60
2023/08/29 03:56:47;;;;;;;23.10;9.90;;;;;;;28.32;53.72;97717.11;67785;1278;1016364;-61
2023/08/29 03:59:50;;;;;;;22.90;10.10;;;;;;;28.36;53.54;97712.06;67803;1278;1016416;-62
2023/08/29 04:02:52;;;;;;;22.30;9.90;;;;;;;28.32;53.53;97707.81;67774;1278;1016393;-61
2023/08/29 04:05:55;;;;;;;21.10;9.30;;;;;;;28.30;53.76;97693.75;67819;1278;1016224;-60
2023/08/29 04:08:57;;;;;;;21.70;9.80;;;;;;;28.21;53.92;97692.77;67819;1278;1016480;-60
2023/08/29 04:11:59;;;;;;;22.60;9.30;;;;;;;28.05;54.22;97688.14;67806;1278;1016401;-61
2023/08/29 04:15:02;;;;;;;21.40;9.40;;;;;;;28.13;53.89;97688.00;67820;1278;1016227;-61
2023/08/29 04:18:04;;;;;;;23.10;10.60;;;;;;;28.11;54.08;97685.71;67845;1278;1016446;-60
2023/08/29 04:21:07;;;;;;;22.20;9.40;;;;;;;28.19;53.99;97682.05;67842;1278;1016355;-60
2023/08/29 04:24:09;;;;;;;21.70;9.00;;;;;;;28.14;54.11;97683.15;67863;1278;1016383;-60
2023/08/29 04:27:11;;;;;;;21.40;9.50;;;;;;;28.17;53.93;97684.25;67822;1278;1016516;-59
2023/08/29 04:30:14;;;;;;;22.50;9.60;;;;;;;28.28;53.90;97687.20;67826;1278;1016382;-60
2023/08/29 04:33:16;;;;;;;26.40;10.20;;;;;;;28.36;53.73;97694.05;67849;1278;1016252;-60
2023/08/29 04:36:19;;;;;;;21.60;9.20;;;;;;;28.27;54.00;97699.73;67832;1278;1016480;-60
2023/08/29 04:39:22;;;;;;;25.10;10.10;;;;;;;28.08;54.68;97694.23;67817;1278;1016367;-60
2023/08/29 04:42:25;;;;;;;21.40;9.20;;;;;;;28.02;54.81;97690.86;67841;1278;1015869;-61
2023/08/29 04:45:27;;;;;;;22.20;9.70;;;;;;;28.08;54.62;97702.52;67800;1278;1016251;-60
2023/08/29 04:48:30;;;;;;;24.10;10.20;;;;;;;28.16;54.47;97701.47;67714;1278;1015810;-60
2023/08/29 04:51:34;;;;;;;21.90;9.60;;;;;;;28.26;54.42;97707.00;67819;1278;1016675;-60
2023/08/29 04:54:37;;;;;;;23.10;9.50;;;;;;;28.37;54.58;97705.73;67840;1278;1016187;-61
2023/08/29 04:57:39;;;;;;;21.40;9.20;;;;;;;28.43;54.24;97701.15;67845;1278;1016708;-60
2023/08/29 05:00:42;;;;;;;21.80;9.90;;;;;;;28.55;53.96;97693.71;67802;1278;1016483;-60
2023/08/29 05:03:44;;;;;;;21.80;9.40;;;;;;;28.63;53.67;97691.45;67818;1278;1016530;-60
2023/08/29 05:06:47;;;;;;;24.60;10.40;;;;;;;28.64;53.52;97693.59;67863;1278;1016454;-60
2023/08/29 05:09:49;;;;;;;22.00;9.70;;;;;;;28.56;53.76;97691.91;67862;1278;1015833;-60
2023/08/29 05:12:52;;;;;;;21.70;9.60;;;;;;;28.51;54.09;97698.27;67792;1278;1016259;-60
2023/08/29 05:15:54;;;;;;;24.10;9.90;;;;;;;28.66;54.02;97720.35;67797;1278;1016186;-61
2023/08/29 05:18:56;;;;;;;22.00;9.60;;;;;;;28.95;53.28;97730.05;67814;1278;1018444;-60
2023/08/29 05:21:59;;;;;;;24.20;9.80;;;;;;;29.17;52.96;97744.37;67844;1278;1019403;-60
2023/08/29 05:25:01;;;;;;;23.10;9.50;;;;;;;29.01;52.59;97748.09;67791;1278;1016468;-61
2023/08/29 05:28:03;;;;;;;21.50;9.90;;;;;;;28.93;53.09;97743.71;67781;1278;1016499;-60
2023/08/29 05:31:06;;;;;;;21.90;9.70;;;;;;;29.18;52.79;97744.11;67744;1278;1017998;-61
2023/08/29 05:34:08;;;;;;;22.80;9.40;;;;;;;29.14;53.23;97731.06;67818;1278;1016363;-60
2023/08/29 05:37:11;;;;;;;22.80;9.70;;;;;;;29.11;53.23;97734.95;67828;1278;1016605;-59
2023/08/29 05:40:13;;;;;;;23.30;10.10;;;;;;;29.13;53.01;97735.43;67855;1278;1016266;-61
2023/08/29 05:43:17;;;;;;;25.20;10.70;;;;;;;29.10;53.05;97739.75;67840;1278;1016079;-61
2023/08/29 05:46:20;;;;;;;24.40;9.80;;;;;;;29.06;53.16;97740.36;67818;1278;1016446;-61
2023/08/29 05:49:22;;;;;;;23.00;9.70;;;;;;;29.37;52.85;97748.48;67802;1278;1016211;-61
2023/08/29 05:52:25;;;;;;;26.00;10.20;;;;;;;29.20;52.48;97747.08;67869;1278;1016557;-60
2023/08/29 05:55:27;;;;;;;24.30;11.20;;;;;;;29.27;52.84;97744.63;67828;1278;1017060;-60
2023/08/29 05:58:30;;;;;;;24.90;10.00;;;;;;;29.26;53.31;97747.52;67798;1277;1016441;-61
2023/08/29 06:01:35;;;;;;;26.90;10.40;;;;;;;29.69;51.88;97739.77;67813;1278;1016415;-61
2023/08/29 06:04:37;;;;;;;24.20;11.00;;;;;;;29.69;51.56;97738.91;67852;1278;1016105;-61
2023/08/29 06:07:39;;;;;;;25.10;10.10;;;;;;;29.64;51.38;97736.13;67738;1278;1016481;-61
2023/08/29 06:10:42;;;;;;;23.60;11.10;;;;;;;29.57;51.70;97743.06;67815;1278;1016138;-60
2023/08/29 06:13:45;;;;;;;26.60;10.90;;;;;;;29.78;51.50;97741.21;67778;1278;1016561;-61
2023/08/29 06:16:47;;;;;;;25.50;10.60;;;;;;;29.87;51.20;97739.43;67859;1278;1018017;-61
2023/08/29 06:19:49;;;;;;;22.30;10.00;;;;;;;29.88;50.96;97748.70;67845;1257;1016313;-60
2023/08/29 06:22:52;;;;;;;26.20;11.10;;;;;;;29.87;51.06;97752.63;67838;1278;1016257;-61
2023/08/29 06:25:54;;;;;;;29.20;11.30;;;;;;;29.87;50.83;97750.96;67827;1278;1016602;-61
2023/08/29 06:28:59;;;;;;;23.20;10.80;;;;;;;29.72;50.71;97743.55;67775;1278;1016478;-61
2023/08/29 06:32:02;;;;;;;22.70;10.30;;;;;;;29.63;51.06;97747.23;67776;1271;1016106;-60
2023/08/29 06:35:05;;;;;;;26.00;11.70;;;;;;;29.86;50.60;97751.91;67721;1279;1016273;-61
2023/08/29 06:38:08;;;;;;;23.40;11.40;;;;;;;29.78;50.87;97748.32;67674;1279;1015950;-61
2023/08/29 06:41:10;;;;;;;25.20;11.30;;;;;;;29.88;50.95;97747.57;67712;1279;1016457;-60
2023/08/29 06:44:13;;;;;;;22.50;8.70;;;;;;;30.05;50.57;97746.28;67745;1279;1016164;-60
2023/08/29 06:47:15;;;;;;;20.50;8.50;;;;;;;30.09;50.49;97748.51;67772;1279;1016391;-61
2023/08/29 06:50:18;;;;;;;22.50;8.60;;;;;;;29.97;50.17;97750.09;67761;1279;1016448;-60
2023/08/29 06:53:20;;;;;;;21.00;8.90;;;;;;;29.98;50.47;97744.61;67739;1279;1016217;-61
2023/08/29 06:56:23;;;;;;;21.50;8.90;;;;;;;29.96;50.47;97746.34;67740;1279;1016400;-61
2023/08/29 06:59:25;;;;;;;21.40;8.70;;;;;;;29.90;50.36;97743.98;67765;1279;1016607;-61
2023/08/29 07:02:28;;;;;;;20.40;8.20;;;;;;;30.07;50.52;97740.85;67733;1279;1016397;-60
2023/08/29 07:05:30;;;;;;;21.10;8.30;;;;;;;30.24;50.01;97740.52;67753;1279;1016405;-61
2023/08/29 07:08:33;;;;;;;20.70;8.70;;;;;;;30.45;49.70;97742.08;67752;1279;1016846;-61
2023/08/29 07:11:35;;;;;;;20.90;9.00;;;;;;;30.58;49.36;97742.59;67705;1279;1015875;-61
2023/08/29 07:14:37;;;;;;;21.40;8.90;;;;;;;30.67;49.17;97746.98;67700;1278;1016124;-61
2023/08/29 07:17:40;;;;;;;24.00;9.10;;;;;;;30.78;49.59;97748.91;67809;1279;1016642;-61
2023/08/29 07:20:42;;;;;;;22.20;8.80;;;;;;;31.11;49.17;97754.27;67766;1279;1017643;-61
2023/08/29 07:23:45;;;;;;;18.60;7.70;;;;;;;31.33;48.81;97757.93;67770;1278;1016705;-61
2023/08/29 07:26:47;;;;;;;20.60;8.10;;;;;;;31.52;48.52;97789.35;67710;1278;1016285;-61
2023/08/29 07:29:49;;;;;;;21.50;9.40;;;;;;;31.57;48.43;97813.95;67722;1279;1016412;-61
2023/08/29 07:32:53;;;;;;;23.80;9.00;;;;;;;31.44;48.21;97827.83;67751;1279;1016499;-61
2023/08/29 07:35:55;;;;;;;25.10;11.80;;;;;;;31.18;47.86;97836.95;67703;1279;1016429;-59
2023/08/29 07:38:58;;;;;;;25.80;12.60;;;;;;;30.98;48.62;97829.26;67789;1278;1018782;-60
2023/08/29 07:42:01;;;;;;;24.10;12.10;;;;;;;31.12;48.63;97824.73;67833;1278;1016478;-60
2023/08/29 07:45:03;;;;;;;26.20;13.70;;;;;;;31.31;48.71;97815.98;67797;1278;1018352;-60
2023/08/29 07:48:05;;;;;;;30.00;12.40;;;;;;;31.56;47.92;97808.85;67823;1278;1016265;-60
2023/08/29 07:51:08;;;;;;;26.10;13.30;;;;;;;31.50;47.66;97811.61;67814;1278;1016170;-60
2023/08/29 07:54:10;;;;;;;26.90;12.80;;;;;;;31.81;47.23;97806.63;67856;1278;1016445;-59
2023/08/29 07:57:13;;;;;;;25.60;13.20;;;;;;;31.92;47.43;97791.60;67743;1278;1015945;-57
2023/08/29 08:00:15;;;;;;;26.80;14.20;;;;;;;32.14;47.72;97779.91;67736;1279;1016893;-60
2023/08/29 08:03:18;;;;;;;26.70;16.60;;;;;;;32.57;47.04;97771.17;67703;1279;1016522;-60
2023/08/29 08:06:20;;;;;;;29.70;16.20;;;;;;;32.46;46.05;97763.72;67747;1279;1016079;-60
2023/08/29 08:09:22;;;;;;;28.90;16.90;;;;;;;32.16;45.98;97773.02;67749;1279;1016239;-59
2023/08/29 08:12:25;;;;;;;28.00;16.90;;;;;;;31.94;46.17;97784.36;67770;1279;1018016;-61
2023/08/29 08:15:28;;;;;;;28.50;17.40;;;;;;;31.99;46.18;97781.73;67721;1279;1016465;-60
2023/08/29 08:18:30;;;;;;;31.60;18.40;;;;;;;32.30;45.58;97780.16;67722;1279;1016289;-61
2023/08/29 08:21:32;;;;;;;30.60;19.10;;;;;;;32.59;45.20;97779.86;67777;1279;1016468;-60
2023/08/29 08:24:35;;;;;;;31.70;17.90;;;;;;;32.58;45.22;97770.80;67760;1279;1018224;-61
2023/08/29 08:27:40;;;;;;;32.70;20.50;;;;;;;32.52;45.58;97763.38;67732;1278;1016388;-60
2023/08/29 08:30:42;;;;;;;30.70;19.00;;;;;;;32.83;45.50;97752.99;67766;1279;1016423;-60
2023/08/29 08:33:45;;;;;;;30.80;15.50;;;;;;;33.05;44.96;97742.27;67830;1278;1016517;-61
2023/08/29 08:36:47;;;;;;;24.60;13.00;;;;;;;32.92;44.86;97741.04;67750;1278;1016433;-61
2023/08/29 08:39:49;;;;;;;22.60;11.20;;;;;;;33.36;44.86;97758.91;67803;1278;1016817;-60
2023/08/29 08:42:52;;;;;;;20.10;9.20;;;;;;;33.56;44.47;97768.89;67810;1278;1016509;-61
2023/08/29 08:45:54;;;;;;;21.10;8.70;;;;;;;33.77;44.05;97756.70;67829;1278;1018881;-60
2023/08/29 08:48:57;;;;;;;20.60;8.90;;;;;;;34.41;44.56;97762.38;67807;1278;1016383;-57
2023/08/29 08:51:59;;;;;;;19.30;8.30;;;;;;;34.73;43.42;97764.54;67743;1279;1016127;-58
2023/08/29 08:55:01;;;;;;;20.40;8.60;;;;;;;34.73;43.25;97765.96;67739;1279;1016405;-60
2023/08/29 08:58:04;;;;;;;19.30;7.60;;;;;;;35.32;43.55;97761.93;67749;1278;1017012;-60
2023/08/29 09:01:06;;;;;;;18.80;8.30;;;;;;;35.83;42.72;97763.32;67762;1279;1016480;-59
2023/08/29 09:04:09;;;;;;;21.60;7.60;;;;;;;36.06;42.37;97763.47;67769;1279;1017447;-60
2023/08/29 09:07:11;;;;;;;19.20;7.80;;;;;;;36.46;41.98;97772.56;67785;1279;1016480;-60
2023/08/29 09:10:15;;;;;;;18.30;7.30;;;;;;;36.70;41.13;97786.32;67703;1279;1016418;-60
2023/08/29 09:13:17;;;;;;;23.30;11.10;;;;;;;36.58;40.45;97784.04;67758;1279;1016192;-58
2023/08/29 09:16:21;;;;;;;21.30;9.10;;;;;;;36.28;41.20;97774.27;67722;1279;1016486;-57
2023/08/29 09:19:23;;;;;;;19.80;8.00;;;;;;;36.44;40.42;97760.23;67778;1279;1016186;-57
2023/08/29 09:22:26;;;;;;;20.80;8.10;;;;;;;36.22;40.20;97763.48;67682;1279;1016471;-57
2023/08/29 09:25:28;;;;;;;18.30;7.20;;;;;;;36.48;41.06;97762.11;67713;1279;1016169;-57
2023/08/29 09:28:31;;;;;;;17.20;6.20;;;;;;;36.96;40.25;97747.41;67744;1279;1016449;-58
2023/08/29 09:31:34;;;;;;;16.10;6.40;;;;;;;37.16;39.68;97742.79;67672;1279;1016442;-57
2023/08/29 09:34:36;;;;;;;18.10;6.50;;;;;;;37.50;39.46;97745.11;67750;1279;1016470;-57
2023/08/29 09:37:39;;;;;;;17.60;6.50;;;;;;;37.83;38.34;97744.15;67745;1279;1017108;-61
2023/08/29 09:40:41;;;;;;;18.80;6.10;;;;;;;37.48;38.53;97732.67;67765;1279;1017419;-61
2023/08/29 09:43:44;;;;;;;15.50;6.10;;;;;;;37.29;39.38;97729.95;67728;1279;1016486;-61
2023/08/29 09:46:47;;;;;;;15.00;5.30;;;;;;;37.47;38.31;97729.36;67752;1279;1016410;-60
2023/08/29 09:49:49;;;;;;;15.30;6.00;;;;;;;37.46;38.05;97739.77;67766;1279;1017714;-61
2023/08/29 09:52:52;;;;;;;13.60;5.20;;;;;;;37.86;38.09;97743.96;67739;1279;1016551;-61
2023/08/29 09:55:54;;;;;;;16.60;6.00;;;;;;;38.06;38.16;97748.42;67742;1279;1018037;-60
2023/08/29 09:58:57;;;;;;;15.60;5.80;;;;;;;38.40;37.94;97750.98;67750;1279;1016479;-57
2023/08/29 10:01:59;;;;;;;15.70;5.80;;;;;;;38.64;37.65;97743.29;67770;1279;1016497;-61
2023/08/29 10:05:03;;;;;;;15.70;5.90;;;;;;;38.75;37.59;97744.56;67757;1279;1016497;-61
2023/08/29 10:08:06;;;;;;;14.70;5.60;;;;;;;38.82;37.30;97749.86;67743;1279;1016284;-61
2023/08/29 10:11:08;;;;;;;14.90;5.70;;;;;;;39.07;37.32;97752.23;67733;1279;1017044;-60
2023/08/29 10:14:11;;;;;;;15.80;5.90;;;;;;;39.27;35.97;97758.56;67731;1279;1016372;-61
2023/08/29 10:17:13;;;;;;;15.60;5.50;;;;;;;38.92;35.90;97756.70;67769;1279;1016401;-59
2023/08/29 10:20:17;;;;;;;15.90;6.00;;;;;;;38.57;36.48;97764.55;67782;1279;1016323;-59
2023/08/29 10:23:19;;;;;;;15.50;5.40;;;;;;;38.32;36.85;97772.17;67750;1278;1016458;-58
2023/08/29 10:26:22;;;;;;;15.50;5.80;;;;;;;38.65;35.62;97778.48;67806;1278;1016484;-59
2023/08/29 10:29:24;;;;;;;17.50;6.10;;;;;;;38.58;35.97;97780.80;67744;1279;1016208;-59
2023/08/29 10:32:26;;;;;;;17.00;6.10;;;;;;;38.56;36.60;97787.36;67740;1279;1016084;-59
2023/08/29 10:35:29;;;;;;;18.70;6.60;;;;;;;38.78;36.40;97796.38;67719;1278;1020560;-59
2023/08/29 10:38:31;;;;;;;17.30;5.90;;;;;;;39.37;35.69;97798.21;67737;1278;1019343;-59
2023/08/29 10:41:33;;;;;;;17.10;7.20;;;;;;;39.00;34.78;97800.84;67757;1278;1016281;-60
2023/08/29 10:44:36;;;;;;;18.90;7.70;;;;;;;38.48;35.72;97803.23;67832;1278;1016226;-60
2023/08/29 10:47:39;;;;;;;18.10;7.10;;;;;;;38.35;35.30;97806.47;67806;1278;1016406;-59
2023/08/29 10:50:41;;;;;;;18.50;6.90;;;;;;;38.27;35.57;97806.48;67782;1278;1016787;-59
2023/08/29 10:53:44;;;;;;;16.60;6.90;;;;;;;38.37;36.25;97806.05;67808;1278;1016281;-59
2023/08/29 10:56:47;;;;;;;16.90;7.00;;;;;;;38.06;35.29;97810.19;67822;1278;1016408;-59
2023/08/29 10:59:50;;;;;;;16.90;6.50;;;;;;;37.43;35.80;97813.39;67838;1262;1016262;-59
2023/08/29 11:02:52;;;;;;;16.20;6.20;;;;;;;37.29;36.42;97810.45;67840;1278;1016349;-59
2023/08/29 11:05:54;;;;;;;16.30;6.60;;;;;;;37.40;36.52;97810.11;67792;1278;1016411;-60
2023/08/29 11:08:57;;;;;;;18.40;6.70;;;;;;;37.15;36.56;97818.77;67717;1279;1017262;-59
2023/08/29 11:12:01;;;;;;;17.90;6.60;;;;;;;37.15;37.29;97819.70;67709;1279;1016416;-59
2023/08/29 11:15:03;;;;;;;18.90;6.40;;;;;;;37.25;36.86;97825.48;67716;1254;1016382;-59
2023/08/29 11:18:06;;;;;;;16.50;6.50;;;;;;;37.51;36.66;97819.25;67794;1278;1016476;-59
2023/08/29 11:21:08;;;;;;;17.20;6.80;;;;;;;37.71;36.39;97817.94;67848;1278;1016708;-59
2023/08/29 11:24:10;;;;;;;17.50;6.60;;;;;;;37.57;36.44;97820.15;67808;1278;1016715;-60
2023/08/29 11:27:13;;;;;;;19.70;7.00;;;;;;;38.11;36.80;97813.03;67676;1278;1016434;-60
2023/08/29 11:30:17;;;;;;;17.80;6.30;;;;;;;38.74;36.66;97809.13;67771;1278;1016471;-60
2023/08/29 11:33:21;;;;;;;19.60;6.90;;;;;;;39.14;35.59;97813.67;67790;1278;1018172;-60
2023/08/29 11:36:24;;;;;;;16.30;6.30;;;;;;;39.02;35.05;97818.82;67735;1279;1017324;-59
2023/08/29 11:39:27;;;;;;;20.60;6.80;;;;;;;38.54;35.29;97821.06;67776;1279;1016760;-60
2023/08/29 11:42:29;;;;;;;18.40;6.90;;;;;;;38.56;35.95;97818.69;67676;1279;1016495;-59
2023/08/29 11:45:31;;;;;;;17.40;6.60;;;;;;;39.23;35.13;97817.09;67744;1279;1016419;-58
2023/08/29 11:48:34;;;;;;;18.10;7.00;;;;;;;39.24;35.03;97821.98;67694;1279;1016390;-60
2023/08/29 11:51:36;;;;;;;16.90;7.00;;;;;;;38.86;35.13;97814.08;67778;1279;1016226;-60
2023/08/29 11:54:39;;;;;;;17.60;7.10;;;;;;;38.29;36.17;97805.39;67795;1279;1015895;-60
2023/08/29 11:57:42;;;;;;;17.60;6.50;;;;;;;37.97;36.85;97800.21;67708;1279;1016545;-60
2023/08/29 12:00:45;;;;;;;16.60;6.30;;;;;;;37.82;36.72;97797.83;67767;1279;1020043;-60
2023/08/29 12:03:47;;;;;;;17.70;6.70;;;;;;;38.17;36.33;97800.33;67700;1279;1016384;-59
2023/08/29 12:06:50;;;;;;;17.30;6.50;;;;;;;38.48;35.92;97792.65;67747;1278;1016350;-59
2023/08/29 12:09:52;;;;;;;16.60;6.70;;;;;;;38.80;35.71;97798.38;67723;1279;1016439;-60
2023/08/29 12:12:55;;;;;;;16.60;6.40;;;;;;;38.21;36.23;97807.83;67770;1279;1015899;-59
2023/08/29 12:15:57;;;;;;;17.90;6.50;;;;;;;37.66;37.03;97807.20;67735;1279;1016379;-58
2023/08/29 12:19:00;;;;;;;18.70;6.70;;;;;;;37.01;37.25;97807.40;67714;1279;1016441;-60
2023/08/29 12:22:02;;;;;;;17.90;7.10;;;;;;;37.15;37.89;97810.45;67734;1278;1018774;-60
2023/08/29 12:25:05;;;;;;;20.00;7.50;;;;;;;36.49;38.99;97813.62;67730;1279;1016503;-60
2023/08/29 12:28:08;;;;;;;16.70;7.10;;;;;;;36.61;38.15;97815.52;67761;1279;1018064;-60
2023/08/29 12:31:11;;;;;;;17.20;6.70;;;;;;;36.84;38.19;97817.25;67702;1279;1016330;-60
2023/08/29 12:34:14;;;;;;;19.30;7.90;;;;;;;36.86;38.00;97815.07;67770;1279;1016262;-60
2023/08/29 12:37:16;;;;;;;18.70;7.00;;;;;;;37.01;37.83;97808.59;67793;1279;1015960;-60
2023/08/29 12:40:18;;;;;;;17.70;6.70;;;;;;;37.04;37.88;97811.29;67701;1278;1016893;-62
2023/08/29 12:43:21;;;;;;;18.00;7.10;;;;;;;36.69;38.30;97823.39;67729;1278;1016517;-60
2023/08/29 12:46:23;;;;;;;18.10;6.80;;;;;;;36.43;38.45;97832.50;67760;1279;1016312;-60
2023/08/29 12:49:26;;;;;;;16.20;6.80;;;;;;;36.27;38.59;97832.44;67761;1279;1018701;-60
2023/08/29 12:52:28;;;;;;;18.20;6.90;;;;;;;35.88;39.32;97838.83;67733;1279;1018526;-60
2023/08/29 12:55:30;;;;;;;19.40;7.40;;;;;;;35.33;40.21;97848.27;67716;1279;1016518;-60
2023/08/29 12:58:33;;;;;;;17.40;7.50;;;;;;;34.89;40.69;97852.05;67704;1279;1016338;-60
2023/08/29 13:01:35;;;;;;;20.40;7.50;;;;;;;34.97;40.71;97846.69;67748;1279;1018198;-60
2023/08/29 13:04:38;;;;;;;17.70;7.00;;;;;;;34.85;41.15;97838.70;67787;1279;1017084;-60
2023/08/29 13:07:41;;;;;;;18.90;7.50;;;;;;;34.58;42.62;97822.12;67764;1279;1019175;-60
2023/08/29 13:10:44;;;;;;;17.30;6.90;;;;;;;34.83;42.15;97822.31;67794;1279;1016478;-60
2023/08/29 13:13:46;;;;;;;18.80;6.80;;;;;;;34.79;42.00;97828.63;67746;1278;1016411;-59
2023/08/29 13:16:49;;;;;;;18.20;7.20;;;;;;;34.95;41.56;97826.64;67708;1256;1016467;-60
2023/08/29 13:19:51;;;;;;;17.70;7.40;;;;;;;34.67;42.09;97829.34;67720;1279;1018921;-58
2023/08/29 13:22:53;;;;;;;18.10;7.50;;;;;;;34.38;42.14;97819.04;67718;1278;1016177;-59
2023/08/29 13:25:56;;;;;;;19.20;7.60;;;;;;;34.20;43.10;97809.06;67797;1278;1016703;-59
2023/08/29 13:28:59;;;;;;;17.40;7.20;;;;;;;34.32;42.98;97810.98;67765;1278;1016663;-58
2023/08/29 13:32:01;;;;;;;18.90;6.80;;;;;;;34.42;43.60;97818.16;67752;1278;1018669;-59
2023/08/29 13:35:04;;;;;;;20.60;7.10;;;;;;;34.23;43.83;97823.81;67792;1279;1018187;-60
2023/08/29 13:38:07;;;;;;;18.60;7.70;;;;;;;33.77;44.28;97829.10;67753;1278;1016517;-60
2023/08/29 13:41:10;;;;;;;19.50;8.20;;;;;;;32.43;47.13;97829.86;67768;1278;1017001;-60
2023/08/29 13:44:12;;;;;;;18.40;8.10;;;;;;;33.21;46.09;97827.40;67786;1278;1016926;-60
2023/08/29 13:47:14;;;;;;;20.40;8.40;;;;;;;33.27;45.15;97826.63;67756;1278;1016539;-60
2023/08/29 13:50:17;;;;;;;20.60;8.80;;;;;;;32.41;47.06;97824.91;67730;1278;1016299;-61